Time;durP1;ratioP1;P1;durP2;ratioP2;P2;SDS_P1;SDS_P2;PMS_P1;PMS_P2;Temp;Humidity;BMP_temperature;BMP_pressure;BME280_temperature;BME280_humidity;BME280_pressure;Samples;Min_cycle;Max_cycle;Signal;HPM_P1;HPM_P2
2023/10/15 00:02:32;;;;;;;5.45;2.08;;;11.60;93.10;;;;;;6240119;23;20012;-74
2023/10/15 00:05:20;;;;;;;5.82;2.22;;;11.60;93.20;;;;;;6240019;23;20004;-74
2023/10/15 00:08:06;;;;;;;5.97;2.00;;;11.60;93.20;;;;;;6239828;23;20027;-74
2023/10/15 00:10:52;;;;;;;6.63;2.17;;;11.60;93.30;;;;;;6238843;23;20243;-74
2023/10/15 00:13:38;;;;;;;8.48;3.03;;;11.50;93.50;;;;;;6239955;23;20103;-75
2023/10/15 00:16:24;;;;;;;4.43;1.90;;;11.50;93.30;;;;;;6239484;23;20039;-75
2023/10/15 00:19:10;;;;;;;5.30;1.65;;;11.50;93.30;;;;;;6238475;23;20023;-75
2023/10/15 00:21:56;;;;;;;7.15;2.60;;;11.50;93.30;;;;;;6240485;23;20066;-76
2023/10/15 00:24:42;;;;;;;5.05;1.70;;;11.50;93.30;;;;;;6239845;23;20016;-78
2023/10/15 00:27:29;;;;;;;4.90;2.13;;;11.40;93.30;;;;;;6238735;23;20012;-78
2023/10/15 00:30:19;;;;;;;11.63;2.85;;;11.40;93.30;;;;;;6216452;23;20093;-77
2023/10/15 00:33:18;;;;;;;5.65;2.40;;;11.40;93.40;;;;;;6217802;23;20019;-78
2023/10/15 00:36:04;;;;;;;13.95;2.53;;;11.30;93.40;;;;;;6241453;23;20456;-78
2023/10/15 00:38:50;;;;;;;9.23;2.17;;;11.40;93.40;;;;;;6239050;23;20040;-78
2023/10/15 00:41:36;;;;;;;9.00;2.30;;;11.30;93.40;;;;;;6238114;23;20020;-79
2023/10/15 00:44:22;;;;;;;8.35;2.97;;;11.30;93.40;;;;;;6238889;23;20004;-77
2023/10/15 00:47:16;;;;;;;5.75;1.80;;;11.30;93.40;;;;;;6238321;23;20028;-77
2023/10/15 00:50:08;;;;;;;7.25;2.17;;;11.30;93.50;;;;;;6240509;23;20036;-77
2023/10/15 00:52:57;;;;;;;6.47;2.53;;;11.30;93.50;;;;;;6240402;23;20059;-77
2023/10/15 00:55:43;;;;;;;9.85;2.22;;;11.30;93.50;;;;;;6241215;22;20012;-77
2023/10/15 01:01:33;;;;;;;5.65;2.10;;;11.20;93.50;;;;;;6239345;23;20356;-78
2023/10/15 01:04:25;;;;;;;6.75;2.85;;;11.20;93.50;;;;;;6238457;23;20515;-76
2023/10/15 01:07:28;;;;;;;5.85;1.95;;;11.20;93.50;;;;;;6238977;23;20126;-77
2023/10/15 01:10:40;;;;;;;4.45;2.38;;;11.20;93.60;;;;;;6239955;23;20004;-78
2023/10/15 01:13:30;;;;;;;5.85;2.60;;;11.20;93.60;;;;;;6238058;23;20450;-78
2023/10/15 01:16:19;;;;;;;7.70;1.98;;;11.10;93.60;;;;;;6239053;23;20054;-79
2023/10/15 01:22:01;;;;;;;6.88;2.38;;;11.10;93.60;;;;;;6240154;23;20036;-78
2023/10/15 01:24:53;;;;;;;8.52;2.78;;;11.10;93.60;;;;;;6238687;23;20522;-77
2023/10/15 01:27:39;;;;;;;7.07;2.53;;;11.10;93.60;;;;;;6243188;23;20042;-75
2023/10/15 01:30:25;;;;;;;5.50;2.25;;;11.10;93.60;;;;;;6245349;23;20012;-77
2023/10/15 01:33:11;;;;;;;5.60;2.08;;;11.10;93.70;;;;;;6240249;23;20490;-77
2023/10/15 01:36:01;;;;;;;5.50;2.60;;;11.10;93.70;;;;;;6238445;23;20349;-77
2023/10/15 01:38:56;;;;;;;6.93;2.10;;;11.10;93.70;;;;;;6239868;23;20012;-77
2023/10/15 01:41:42;;;;;;;6.07;1.88;;;11.10;93.70;;;;;;6239941;23;20028;-74
2023/10/15 01:44:28;;;;;;;7.20;2.40;;;11.10;93.60;;;;;;6240608;23;20401;-73
2023/10/15 01:47:14;;;;;;;7.13;2.17;;;11.00;93.60;;;;;;6236751;23;20082;-73
2023/10/15 01:50:00;;;;;;;9.95;2.42;;;11.00;93.70;;;;;;6237948;23;20020;-76
2023/10/15 01:52:46;;;;;;;8.65;3.22;;;11.00;93.60;;;;;;6240018;23;20023;-75
2023/10/15 01:55:35;;;;;;;7.50;2.40;;;11.00;93.70;;;;;;6241548;22;20011;-75
2023/10/15 01:58:30;;;;;;;7.20;2.65;;;11.00;93.70;;;;;;6238788;23;20011;-74
2023/10/15 02:01:32;;;;;;;5.93;2.92;;;10.90;93.70;;;;;;6238605;23;20334;-74
2023/10/15 02:07:13;;;;;;;7.75;2.30;;;11.00;93.70;;;;;;6238327;23;20458;-73
2023/10/15 02:10:00;;;;;;;9.45;2.65;;;10.90;93.70;;;;;;6217024;23;20004;-75
2023/10/15 02:12:51;;;;;;;5.45;2.10;;;11.00;93.70;;;;;;6238196;23;20016;-75
2023/10/15 02:15:39;;;;;;;9.27;2.75;;;11.00;93.70;;;;;;6237628;23;20008;-75
2023/10/15 02:18:29;;;;;;;4.80;2.00;;;10.90;93.70;;;;;;6238024;23;20446;-74
2023/10/15 02:21:19;;;;;;;6.45;2.22;;;10.90;93.70;;;;;;6239264;23;20062;-74
2023/10/15 02:24:12;;;;;;;7.82;2.15;;;10.90;93.70;;;;;;6238522;23;20036;-74
2023/10/15 02:26:58;;;;;;;9.65;2.78;;;10.90;93.80;;;;;;6238234;23;20032;-74
2023/10/15 02:29:51;;;;;;;8.98;2.25;;;10.90;93.80;;;;;;6238223;23;20100;-74
2023/10/15 02:32:42;;;;;;;8.40;2.58;;;11.00;93.80;;;;;;6239379;23;20019;-73
2023/10/15 02:35:39;;;;;;;7.25;2.58;;;11.00;93.80;;;;;;6241327;23;20315;-72
2023/10/15 02:38:35;;;;;;;4.88;2.10;;;11.00;93.80;;;;;;6243695;23;20019;-68
2023/10/15 02:44:40;;;;;;;6.88;2.00;;;11.00;94.00;;;;;;6120674;23;20344;-67
2023/10/15 02:47:31;;;;;;;4.72;2.65;;;11.00;93.70;;;;;;6122401;23;20030;-67
2023/10/15 02:50:23;;;;;;;6.57;2.10;;;10.90;93.70;;;;;;6122065;23;20010;-67
2023/10/15 02:53:11;;;;;;;8.32;3.05;;;10.90;93.70;;;;;;6119737;23;20348;-67
2023/10/15 02:55:58;;;;;;;9.60;2.75;;;10.90;93.70;;;;;;6121749;23;20457;-68
2023/10/15 02:58:45;;;;;;;9.45;2.42;;;10.80;93.70;;;;;;6149623;23;20378;-68
2023/10/15 03:01:31;;;;;;;7.53;2.10;;;10.80;93.80;;;;;;6149437;23;20017;-68
2023/10/15 03:04:32;;;;;;;7.07;2.00;;;10.80;93.80;;;;;;6151528;23;20005;-68
2023/10/15 03:07:19;;;;;;;5.13;2.00;;;10.80;93.80;;;;;;6150121;23;20052;-67
2023/10/15 03:10:05;;;;;;;8.43;2.00;;;10.80;93.80;;;;;;6149367;23;20093;-68
2023/10/15 03:12:51;;;;;;;7.70;2.10;;;10.80;93.80;;;;;;6149643;23;20084;-68
2023/10/15 03:15:46;;;;;;;4.93;2.15;;;10.80;93.80;;;;;;6151316;23;20533;-67
2023/10/15 03:18:34;;;;;;;8.90;2.40;;;10.70;93.90;;;;;;6149985;23;20020;-67
2023/10/15 03:21:30;;;;;;;6.43;2.70;;;10.70;93.90;;;;;;6216726;23;20380;-67
2023/10/15 03:24:17;;;;;;;6.93;2.72;;;10.70;93.90;;;;;;6240197;23;20366;-68
2023/10/15 03:27:05;;;;;;;5.28;1.98;;;10.70;93.90;;;;;;6241454;23;20024;-69
2023/10/15 03:29:51;;;;;;;7.57;2.00;;;10.70;93.90;;;;;;6243363;23;20012;-67
2023/10/15 03:32:41;;;;;;;5.22;1.63;;;10.70;94.00;;;;;;6242927;23;20452;-69
2023/10/15 03:35:33;;;;;;;5.20;2.75;;;10.70;94.00;;;;;;6240611;23;20016;-68
2023/10/15 03:38:23;;;;;;;9.93;2.55;;;10.70;94.00;;;;;;6241062;23;20074;-68
2023/10/15 03:41:21;;;;;;;10.10;2.22;;;10.70;94.00;;;;;;6243129;23;20047;-67
2023/10/15 03:44:10;;;;;;;6.53;1.80;;;10.60;94.00;;;;;;6239265;23;20538;-66
2023/10/15 03:47:04;;;;;;;6.40;2.53;;;10.60;94.00;;;;;;6240549;23;20012;-68
2023/10/15 03:49:51;;;;;;;9.75;2.85;;;10.60;94.00;;;;;;6240193;23;20008;-67
2023/10/15 03:52:37;;;;;;;10.80;2.10;;;10.50;94.00;;;;;;6239551;23;20012;-68
2023/10/15 03:55:24;;;;;;;8.40;2.83;;;10.50;94.00;;;;;;6238569;22;20510;-67
2023/10/15 03:58:13;;;;;;;5.40;1.90;;;10.50;94.10;;;;;;6239826;23;20008;-68
2023/10/15 04:01:18;;;;;;;8.57;2.40;;;10.50;94.10;;;;;;6239794;23;20004;-67
2023/10/15 04:04:04;;;;;;;4.57;1.80;;;10.50;94.10;;;;;;6240619;23;20435;-69
2023/10/15 04:06:54;;;;;;;9.63;2.10;;;10.40;94.10;;;;;;6239423;23;20012;-69
2023/10/15 04:09:39;;;;;;;8.02;2.40;;;10.40;94.10;;;;;;6239946;23;20012;-68
2023/10/15 04:12:27;;;;;;;6.93;1.90;;;10.40;94.20;;;;;;6239012;23;20453;-69
2023/10/15 04:15:16;;;;;;;6.47;2.40;;;10.40;94.20;;;;;;6240143;23;20103;-69
2023/10/15 04:18:02;;;;;;;5.22;2.10;;;10.40;94.20;;;;;;6239955;23;20012;-68
2023/10/15 04:20:48;;;;;;;10.18;2.47;;;10.40;94.30;;;;;;6240376;23;20016;-67
2023/10/15 04:23:35;;;;;;;12.73;3.05;;;10.40;94.40;;;;;;6240388;23;20015;-68
2023/10/15 04:26:28;;;;;;;15.45;2.63;;;10.40;94.40;;;;;;6240032;23;20457;-68
2023/10/15 04:29:18;;;;;;;5.63;2.45;;;10.40;94.40;;;;;;6239536;23;20008;-68
2023/10/15 04:32:04;;;;;;;9.30;2.35;;;10.40;94.40;;;;;;6239646;23;20011;-67
2023/10/15 04:34:51;;;;;;;12.35;3.42;;;10.40;94.40;;;;;;6239816;23;20446;-67
2023/10/15 04:37:38;;;;;;;5.50;2.17;;;10.40;94.50;;;;;;6215690;23;20512;-67
2023/10/15 04:40:24;;;;;;;8.45;2.38;;;10.40;94.60;;;;;;6238226;23;20451;-67
2023/10/15 04:43:10;;;;;;;6.30;2.08;;;10.40;94.50;;;;;;6240793;23;20012;-67
2023/10/15 04:45:57;;;;;;;9.82;2.53;;;10.40;94.50;;;;;;6238957;23;20066;-65
2023/10/15 04:48:45;;;;;;;6.45;1.75;;;10.30;94.50;;;;;;6239965;23;20016;-64
2023/10/15 04:51:42;;;;;;;6.80;2.15;;;10.30;94.50;;;;;;6238493;23;20038;-63
2023/10/15 04:54:28;;;;;;;5.43;2.45;;;10.30;94.50;;;;;;6239798;23;20020;-63
2023/10/15 04:57:14;;;;;;;9.95;3.25;;;10.30;94.60;;;;;;6238652;22;20043;-64
2023/10/15 05:00:00;;;;;;;4.55;1.83;;;10.30;94.60;;;;;;6239634;23;20009;-64
2023/10/15 05:02:45;;;;;;;8.52;2.40;;;10.30;94.70;;;;;;6240800;23;20434;-65
2023/10/15 05:05:31;;;;;;;7.95;2.90;;;10.30;94.70;;;;;;6239211;23;20492;-64
2023/10/15 05:08:17;;;;;;;5.43;2.10;;;10.40;94.70;;;;;;6238900;23;20031;-65
2023/10/15 05:11:04;;;;;;;6.15;3.45;;;10.40;94.80;;;;;;6239308;23;20460;-66
2023/10/15 05:13:51;;;;;;;5.20;2.20;;;10.40;94.80;;;;;;6239160;23;20043;-65
2023/10/15 05:16:37;;;;;;;10.68;2.10;;;10.40;94.80;;;;;;6238892;23;20087;-65
2023/10/15 05:19:23;;;;;;;13.10;2.80;;;10.40;94.80;;;;;;6238861;23;20008;-65
2023/10/15 05:22:09;;;;;;;6.43;3.08;;;10.40;94.80;;;;;;6239394;23;20016;-65
2023/10/15 05:24:55;;;;;;;7.10;2.17;;;10.40;94.80;;;;;;6237970;23;20332;-65
2023/10/15 05:27:42;;;;;;;10.80;3.33;;;10.50;94.90;;;;;;6239067;23;20020;-66
2023/10/15 05:30:28;;;;;;;5.90;2.05;;;10.50;94.90;;;;;;6238783;23;20008;-64
2023/10/15 05:33:16;;;;;;;5.65;2.13;;;10.50;94.80;;;;;;6238645;23;20509;-64
2023/10/15 05:36:02;;;;;;;5.97;2.35;;;10.50;94.90;;;;;;6239162;23;20019;-65
2023/10/15 05:38:48;;;;;;;5.38;2.55;;;10.50;94.80;;;;;;6238515;23;20023;-65
2023/10/15 05:41:34;;;;;;;7.10;2.45;;;10.50;94.80;;;;;;6238313;23;20373;-64
2023/10/15 05:44:20;;;;;;;8.50;2.47;;;10.50;94.80;;;;;;6238567;23;20199;-65
2023/10/15 05:47:06;;;;;;;7.97;2.83;;;10.50;94.80;;;;;;6238787;23;20027;-65
2023/10/15 05:49:55;;;;;;;8.18;2.50;;;10.50;94.80;;;;;;6238789;23;20027;-66
2023/10/15 05:52:41;;;;;;;8.23;2.10;;;10.40;94.80;;;;;;6238754;23;20401;-66
2023/10/15 05:55:28;;;;;;;3.10;1.67;;;10.50;94.80;;;;;;6238478;22;20077;-65
2023/10/15 05:58:15;;;;;;;6.03;2.17;;;10.40;94.90;;;;;;6240148;23;20412;-64
2023/10/15 06:01:03;;;;;;;6.55;1.90;;;10.30;94.90;;;;;;6216642;23;20130;-65
2023/10/15 06:03:49;;;;;;;7.00;1.92;;;10.40;94.90;;;;;;6238623;23;20437;-65
2023/10/15 06:06:36;;;;;;;6.82;2.50;;;10.40;94.90;;;;;;6239776;23;20087;-65
2023/10/15 06:09:23;;;;;;;9.52;3.70;;;10.40;94.90;;;;;;6217557;23;20020;-65
2023/10/15 06:12:09;;;;;;;7.25;2.65;;;10.40;94.90;;;;;;6238254;23;20012;-65
2023/10/15 06:14:55;;;;;;;8.43;2.58;;;10.50;95.10;;;;;;6239277;23;20445;-65
2023/10/15 06:17:42;;;;;;;10.73;2.75;;;10.50;95.10;;;;;;6237992;23;20372;-66
2023/10/15 06:20:28;;;;;;;8.18;3.03;;;10.50;95.10;;;;;;6239732;23;20016;-64
2023/10/15 06:23:14;;;;;;;11.00;2.47;;;10.50;95.00;;;;;;6240537;23;20466;-66
2023/10/15 06:26:00;;;;;;;11.50;3.85;;;10.50;95.00;;;;;;6236078;23;20066;-64
2023/10/15 06:28:46;;;;;;;5.63;2.80;;;10.60;95.00;;;;;;6237314;23;20019;-66
2023/10/15 06:31:32;;;;;;;8.52;2.63;;;10.60;95.00;;;;;;6235879;23;20005;-65
2023/10/15 06:34:18;;;;;;;6.28;2.78;;;10.60;95.10;;;;;;6237475;23;20027;-65
2023/10/15 06:37:08;;;;;;;6.68;2.22;;;10.60;95.00;;;;;;6238466;23;20015;-65
2023/10/15 06:39:53;;;;;;;6.22;2.47;;;10.70;94.90;;;;;;6235766;23;20058;-65
2023/10/15 06:42:40;;;;;;;5.18;2.00;;;10.70;95.10;;;;;;6237364;23;20335;-65
2023/10/15 06:45:27;;;;;;;9.25;2.80;;;10.70;94.90;;;;;;6238539;23;20473;-65
2023/10/15 06:48:13;;;;;;;9.40;3.05;;;10.70;94.90;;;;;;6238006;23;20091;-63
2023/10/15 06:51:04;;;;;;;6.63;2.60;;;10.80;94.90;;;;;;6237248;23;20256;-68
2023/10/15 06:53:50;;;;;;;4.43;2.17;;;10.80;94.90;;;;;;6237327;23;20012;-64
2023/10/15 06:56:36;;;;;;;9.00;3.10;;;10.80;94.90;;;;;;6238151;22;20004;-66
2023/10/15 06:59:22;;;;;;;8.15;2.75;;;10.80;95.10;;;;;;6236678;23;20043;-65
2023/10/15 07:02:08;;;;;;;8.27;2.88;;;10.90;94.90;;;;;;6237276;23;20647;-65
2023/10/15 07:04:55;;;;;;;6.40;3.05;;;10.90;94.90;;;;;;6237783;23;20458;-66
2023/10/15 07:07:44;;;;;;;5.25;2.22;;;10.80;94.70;;;;;;6238278;23;20016;-64
2023/10/15 07:10:30;;;;;;;6.35;2.55;;;10.80;94.70;;;;;;6237678;23;20521;-65
2023/10/15 07:13:18;;;;;;;6.35;2.55;;;10.80;94.80;;;;;;6238208;23;20074;-64
2023/10/15 07:16:06;;;;;;;6.00;2.00;;;10.90;94.80;;;;;;6237536;23;20473;-63
2023/10/15 07:18:51;;;;;;;8.32;2.45;;;10.90;94.70;;;;;;6238599;23;20008;-64
2023/10/15 07:21:37;;;;;;;9.48;2.72;;;10.80;94.70;;;;;;6240896;23;20012;-64
2023/10/15 07:24:23;;;;;;;6.55;2.13;;;10.80;94.80;;;;;;6218998;23;20016;-65
2023/10/15 07:27:09;;;;;;;7.18;2.03;;;10.90;94.80;;;;;;6239285;23;20012;-64
2023/10/15 07:29:55;;;;;;;7.68;2.30;;;10.90;94.80;;;;;;6239421;23;20012;-64
2023/10/15 07:32:43;;;;;;;9.18;2.35;;;11.00;94.80;;;;;;6238710;23;20008;-65
2023/10/15 07:35:30;;;;;;;6.30;1.95;;;11.10;94.80;;;;;;6241273;23;20040;-64
2023/10/15 07:38:16;;;;;;;3.25;1.83;;;11.10;94.80;;;;;;6238377;23;20476;-64
2023/10/15 07:41:05;;;;;;;9.73;2.70;;;11.20;94.70;;;;;;6238754;23;20028;-64
2023/10/15 07:43:51;;;;;;;5.68;2.15;;;11.20;94.60;;;;;;6238928;23;20012;-64
2023/10/15 07:46:38;;;;;;;12.02;2.53;;;11.20;94.40;;;;;;6239574;23;20011;-64
2023/10/15 07:49:25;;;;;;;9.48;2.28;;;11.10;94.40;;;;;;6239121;23;20016;-64
2023/10/15 07:52:11;;;;;;;4.22;2.10;;;11.20;94.40;;;;;;6241393;23;20019;-64
2023/10/15 07:54:57;;;;;;;7.38;2.20;;;11.20;94.50;;;;;;6239004;23;20019;-64
2023/10/15 07:57:43;;;;;;;5.10;1.70;;;11.20;94.50;;;;;;6240236;23;20008;-63
2023/10/15 08:00:30;;;;;;;5.03;2.15;;;11.20;94.50;;;;;;6238894;23;20488;-65
2023/10/15 08:03:16;;;;;;;4.93;1.98;;;11.30;94.40;;;;;;6237430;23;20015;-65
2023/10/15 08:06:02;;;;;;;6.60;1.88;;;11.30;94.50;;;;;;6238609;23;20012;-65
2023/10/15 08:08:48;;;;;;;8.35;2.40;;;11.40;94.50;;;;;;6240710;23;20024;-65
2023/10/15 08:11:34;;;;;;;6.80;2.05;;;11.50;94.40;;;;;;6241160;23;20063;-66
2023/10/15 08:14:20;;;;;;;10.40;3.47;;;11.50;94.40;;;;;;6239459;23;20004;-65
2023/10/15 08:17:06;;;;;;;5.10;2.15;;;11.60;94.30;;;;;;6218425;23;20016;-66
2023/10/15 08:19:53;;;;;;;7.70;1.70;;;11.60;94.20;;;;;;6239403;23;20434;-66
2023/10/15 08:22:40;;;;;;;5.20;1.92;;;11.60;94.20;;;;;;6239731;23;20043;-64
2023/10/15 08:25:26;;;;;;;6.22;2.05;;;11.60;94.00;;;;;;6238733;23;20167;-64
2023/10/15 08:28:12;;;;;;;7.32;1.80;;;11.60;93.80;;;;;;6238794;23;20024;-69
2023/10/15 08:30:59;;;;;;;3.33;1.50;;;11.60;93.80;;;;;;6239316;23;20019;-64
2023/10/15 08:33:45;;;;;;;3.92;1.40;;;11.60;93.80;;;;;;6239585;23;20520;-64
2023/10/15 08:36:32;;;;;;;4.07;1.65;;;11.60;93.70;;;;;;6239386;23;20045;-62
2023/10/15 08:39:18;;;;;;;4.72;1.92;;;11.70;93.60;;;;;;6238606;23;20103;-64
2023/10/15 08:42:16;;;;;;;8.40;1.73;;;11.60;93.70;;;;;;6240182;23;20024;-64
2023/10/15 08:45:05;;;;;;;3.70;1.40;;;11.60;93.40;;;;;;6239879;23;20033;-65
2023/10/15 08:47:53;;;;;;;5.72;1.30;;;11.70;93.50;;;;;;6238576;23;20020;-66
2023/10/15 08:50:40;;;;;;;7.05;1.80;;;11.80;93.50;;;;;;6242281;23;20008;-62
2023/10/15 08:53:28;;;;;;;4.65;1.63;;;11.80;93.50;;;;;;6237637;23;20434;-62
2023/10/15 08:56:25;;;;;;;3.92;1.85;;;11.90;93.70;;;;;;6239004;22;20008;-64
2023/10/15 08:59:11;;;;;;;4.65;1.90;;;12.00;93.60;;;;;;6238684;23;20016;-64
2023/10/15 09:01:57;;;;;;;2.72;1.50;;;12.00;93.40;;;;;;6240433;23;20089;-72
2023/10/15 09:18:18;;;;;;;5.43;1.75;;;12.20;93.00;;;;;;6232834;23;20028;-70
2023/10/15 09:21:04;;;;;;;4.50;1.65;;;12.20;92.80;;;;;;6210410;23;20040;-70
2023/10/15 09:23:52;;;;;;;5.30;1.85;;;12.20;92.70;;;;;;6210288;23;20009;-73
2023/10/15 09:26:39;;;;;;;3.50;1.55;;;12.30;92.80;;;;;;6209665;23;20322;-69
2023/10/15 09:29:30;;;;;;;6.43;1.95;;;12.40;92.80;;;;;;6208814;23;20020;-69
2023/10/15 09:32:16;;;;;;;3.00;1.60;;;12.40;92.70;;;;;;6209187;23;20047;-69
2023/10/15 09:35:04;;;;;;;5.50;1.52;;;12.50;92.60;;;;;;6210174;23;20013;-70
2023/10/15 09:37:50;;;;;;;4.13;1.65;;;12.50;92.60;;;;;;6207598;23;20465;-70
2023/10/15 09:40:36;;;;;;;5.28;1.55;;;12.60;92.60;;;;;;6209872;23;20020;-69
2023/10/15 09:43:26;;;;;;;5.75;1.33;;;12.60;92.40;;;;;;6209895;23;20015;-69
2023/10/15 09:46:12;;;;;;;5.45;1.80;;;12.70;92.40;;;;;;6211059;23;20051;-69
2023/10/15 09:49:04;;;;;;;4.55;1.70;;;12.80;92.40;;;;;;6208261;23;20021;-69
2023/10/15 09:51:51;;;;;;;3.97;1.75;;;12.80;92.40;;;;;;6208523;23;20020;-69
2023/10/15 09:54:42;;;;;;;2.50;1.25;;;12.90;92.40;;;;;;6210663;23;20069;-69
2023/10/15 09:57:29;;;;;;;5.10;1.90;;;12.90;92.20;;;;;;6208228;23;20015;-70
2023/10/15 10:00:19;;;;;;;2.67;1.58;;;12.90;92.20;;;;;;6209787;23;20331;-68
2023/10/15 10:03:37;;;;;;;4.15;1.50;;;13.00;92.20;;;;;;6208125;23;20013;-69
2023/10/15 10:06:42;;;;;;;3.03;1.33;;;13.00;92.20;;;;;;6209100;23;20036;-69
2023/10/15 10:09:51;;;;;;;1.65;1.10;;;13.10;92.00;;;;;;6208431;23;20025;-69
2023/10/15 10:13:03;;;;;;;5.03;1.50;;;13.20;92.40;;;;;;6208636;23;20016;-69
2023/10/15 10:15:57;;;;;;;2.35;1.10;;;13.20;92.20;;;;;;6205893;23;20012;-70
2023/10/15 10:18:44;;;;;;;2.40;1.48;;;13.20;92.20;;;;;;6212643;23;20012;-70
2023/10/15 10:21:31;;;;;;;3.15;1.30;;;13.10;91.90;;;;;;6238901;23;20032;-69
2023/10/15 10:24:17;;;;;;;3.25;1.73;;;13.10;91.70;;;;;;6236760;23;20018;-71
2023/10/15 10:27:15;;;;;;;4.55;1.33;;;13.00;91.60;;;;;;6217692;23;20494;-70
2023/10/15 10:30:30;;;;;;;4.45;1.40;;;13.10;91.60;;;;;;6237473;23;20027;-69
2023/10/15 10:33:39;;;;;;;3.28;1.20;;;13.10;91.70;;;;;;6236728;23;20008;-69
2023/10/15 10:36:27;;;;;;;6.15;1.73;;;13.20;91.60;;;;;;6239870;23;20047;-69
2023/10/15 10:39:13;;;;;;;2.45;1.15;;;13.30;91.70;;;;;;6238564;23;20015;-70
2023/10/15 10:42:00;;;;;;;2.67;1.30;;;13.30;91.70;;;;;;6238995;23;20058;-69
2023/10/15 10:44:46;;;;;;;2.85;1.40;;;13.40;91.60;;;;;;6240055;23;20019;-69
2023/10/15 10:47:34;;;;;;;3.42;1.70;;;13.40;91.50;;;;;;6237892;23;20020;-69
2023/10/15 10:50:21;;;;;;;2.03;0.95;;;13.50;91.70;;;;;;6239281;23;20442;-69
2023/10/15 10:53:14;;;;;;;4.05;1.35;;;13.40;91.40;;;;;;6238429;23;20008;-70
2023/10/15 10:56:04;;;;;;;4.38;1.30;;;13.70;91.30;;;;;;6240941;22;20016;-69
2023/10/15 10:58:54;;;;;;;2.65;1.00;;;13.70;91.20;;;;;;6241341;23;20016;-70
2023/10/15 11:01:41;;;;;;;2.45;1.15;;;13.70;90.90;;;;;;6239968;23;20035;-70
2023/10/15 11:04:27;;;;;;;1.67;1.15;;;13.70;91.20;;;;;;6242345;23;20016;-70
2023/10/15 11:07:15;;;;;;;5.47;1.77;;;13.60;90.80;;;;;;6238516;23;20016;-70
2023/10/15 11:10:05;;;;;;;3.05;1.10;;;13.60;90.80;;;;;;6240488;23;20014;-70
2023/10/15 11:12:51;;;;;;;2.33;1.15;;;13.50;91.00;;;;;;6242311;23;20091;-70
2023/10/15 11:15:38;;;;;;;3.33;1.40;;;13.50;90.90;;;;;;6238988;23;20008;-71
2023/10/15 11:18:24;;;;;;;5.22;1.52;;;13.60;90.90;;;;;;6238390;23;20036;-69
2023/10/15 11:21:10;;;;;;;2.95;1.40;;;13.50;90.70;;;;;;6239972;23;20008;-71
2023/10/15 11:23:57;;;;;;;1.67;1.05;;;13.50;90.60;;;;;;6239872;23;20048;-71
2023/10/15 11:26:44;;;;;;;2.53;1.25;;;13.60;90.50;;;;;;6239768;23;20034;-70
2023/10/15 11:29:33;;;;;;;3.17;1.35;;;13.60;90.60;;;;;;6239902;23;20020;-71
2023/10/15 11:32:19;;;;;;;3.40;1.17;;;13.70;90.50;;;;;;6240523;23;20027;-70
2023/10/15 11:35:07;;;;;;;1.65;1.30;;;13.80;90.40;;;;;;6239492;23;20016;-73
2023/10/15 11:37:53;;;;;;;2.33;1.23;;;13.80;90.00;;;;;;6240977;23;20016;-70
2023/10/15 11:40:39;;;;;;;3.25;1.30;;;13.80;89.60;;;;;;6239882;23;20046;-70
2023/10/15 11:43:25;;;;;;;5.45;1.65;;;13.70;89.90;;;;;;6218164;23;20012;-71
2023/10/15 11:46:16;;;;;;;3.70;1.52;;;13.70;90.00;;;;;;6240461;23;20016;-72
2023/10/15 11:49:02;;;;;;;2.17;1.13;;;13.60;89.50;;;;;;6237939;23;20024;-72
2023/10/15 11:51:50;;;;;;;3.10;1.55;;;13.60;89.70;;;;;;6218572;23;20023;-72
2023/10/15 11:54:39;;;;;;;2.58;1.17;;;13.60;89.30;;;;;;6217060;23;20012;-74
2023/10/15 11:57:26;;;;;;;3.58;1.50;;;13.70;89.20;;;;;;6237927;22;20445;-72
2023/10/15 12:00:22;;;;;;;3.20;1.20;;;13.60;89.00;;;;;;6219599;23;20012;-75
2023/10/15 12:03:09;;;;;;;1.35;1.00;;;13.60;88.70;;;;;;6241585;23;20012;-71
2023/10/15 12:05:55;;;;;;;6.47;1.20;;;13.50;89.20;;;;;;6240521;23;20087;-73
2023/10/15 12:08:41;;;;;;;1.65;0.95;;;13.50;89.00;;;;;;6240928;23;20016;-74
2023/10/15 12:11:27;;;;;;;6.32;1.85;;;13.50;88.80;;;;;;6239486;23;20008;-73
2023/10/15 12:14:13;;;;;;;2.25;1.13;;;13.50;88.90;;;;;;6237285;23;20019;-74
2023/10/15 12:16:59;;;;;;;4.40;1.35;;;13.40;88.90;;;;;;6239793;23;20114;-74
2023/10/15 12:19:47;;;;;;;6.72;1.17;;;13.50;89.10;;;;;;6236491;23;20024;-73
2023/10/15 12:22:33;;;;;;;3.47;1.42;;;13.40;89.20;;;;;;6239328;23;20012;-71
2023/10/15 12:25:19;;;;;;;4.18;1.50;;;13.50;89.90;;;;;;6241610;23;20035;-72
2023/10/15 12:28:05;;;;;;;2.75;1.20;;;13.50;89.20;;;;;;6239739;23;20528;-72
2023/10/15 12:30:53;;;;;;;2.53;1.25;;;13.50;89.80;;;;;;6238797;23;20062;-72
2023/10/15 12:33:39;;;;;;;3.25;1.27;;;13.50;90.00;;;;;;6238320;23;20079;-72
2023/10/15 12:36:25;;;;;;;2.10;1.20;;;13.50;89.50;;;;;;6236630;23;20013;-72
2023/10/15 12:39:11;;;;;;;2.78;1.20;;;13.60;89.70;;;;;;6238651;23;20019;-71
2023/10/15 12:41:58;;;;;;;4.25;1.40;;;13.60;89.40;;;;;;6239747;23;20026;-72
2023/10/15 12:44:46;;;;;;;3.10;1.45;;;13.70;88.40;;;;;;6239290;23;20015;-71
2023/10/15 12:47:32;;;;;;;3.58;1.20;;;13.70;88.40;;;;;;6239956;23;20031;-71
2023/10/15 12:50:18;;;;;;;3.33;1.23;;;13.70;88.30;;;;;;6216657;23;20035;-71
2023/10/15 12:53:05;;;;;;;3.45;1.30;;;13.90;88.70;;;;;;6239815;23;20442;-72
2023/10/15 12:55:52;;;;;;;1.75;1.00;;;14.00;88.70;;;;;;6238121;22;20070;-72
2023/10/15 12:58:38;;;;;;;3.75;1.02;;;14.00;87.90;;;;;;6239516;23;20087;-72
2023/10/15 13:01:24;;;;;;;4.40;1.00;;;14.00;88.30;;;;;;6238582;23;20307;-71
2023/10/15 13:04:09;;;;;;;4.78;1.60;;;14.10;87.90;;;;;;6237757;23;20008;-71
2023/10/15 13:06:55;;;;;;;2.10;1.08;;;14.10;87.50;;;;;;6239102;23;20015;-71
2023/10/15 13:09:41;;;;;;;2.95;0.82;;;14.10;87.10;;;;;;6237455;23;20016;-70
2023/10/15 13:12:28;;;;;;;0.98;0.85;;;14.00;86.90;;;;;;6238042;23;20367;-71
2023/10/15 13:15:17;;;;;;;2.28;0.90;;;14.10;87.40;;;;;;6238164;23;20015;-71
2023/10/15 13:18:03;;;;;;;2.50;1.20;;;14.00;86.90;;;;;;6239207;23;20015;-71
2023/10/15 13:20:49;;;;;;;2.55;1.30;;;14.00;86.40;;;;;;6237880;23;20023;-72
2023/10/15 13:23:36;;;;;;;1.50;0.90;;;14.00;86.70;;;;;;6237415;23;20019;-71
2023/10/15 13:26:23;;;;;;;2.38;0.95;;;14.10;86.40;;;;;;6240959;23;20446;-72
2023/10/15 13:29:09;;;;;;;3.38;1.02;;;14.10;86.20;;;;;;6238563;23;20031;-71
2023/10/15 13:31:55;;;;;;;3.17;1.23;;;14.10;86.20;;;;;;6237683;23;20008;-72
2023/10/15 13:34:42;;;;;;;4.00;1.35;;;14.20;86.00;;;;;;6238098;23;20101;-73
2023/10/15 13:37:28;;;;;;;3.22;1.23;;;14.20;85.70;;;;;;6238078;23;20210;-73
2023/10/15 13:40:15;;;;;;;2.78;1.13;;;14.20;84.90;;;;;;6239228;23;20016;-71
2023/10/15 13:43:01;;;;;;;2.63;1.30;;;14.20;84.90;;;;;;6238870;23;20004;-70
2023/10/15 13:45:47;;;;;;;3.25;1.23;;;14.20;84.80;;;;;;6241157;23;20103;-72
2023/10/15 13:48:33;;;;;;;1.55;0.90;;;14.30;84.40;;;;;;6238556;23;20024;-71
2023/10/15 13:51:19;;;;;;;1.67;0.88;;;14.20;84.00;;;;;;6238672;23;20020;-71
2023/10/15 13:54:06;;;;;;;1.02;0.85;;;14.20;83.40;;;;;;6238541;23;20574;-72
2023/10/15 13:56:53;;;;;;;3.83;1.20;;;14.10;83.70;;;;;;6239543;22;20008;-72
2023/10/15 13:59:40;;;;;;;2.17;1.30;;;14.10;84.00;;;;;;6238718;23;20012;-73
2023/10/15 14:02:27;;;;;;;1.63;0.93;;;14.20;84.50;;;;;;6241514;23;20012;-71
2023/10/15 14:05:15;;;;;;;2.20;1.10;;;14.30;84.50;;;;;;6237733;23;20067;-72
2023/10/15 14:08:01;;;;;;;3.38;1.10;;;14.30;84.30;;;;;;6239988;23;20081;-71
2023/10/15 14:10:50;;;;;;;2.05;0.90;;;14.40;84.50;;;;;;6237681;23;20552;-72
2023/10/15 14:13:36;;;;;;;1.95;0.95;;;14.50;84.10;;;;;;6237190;23;20016;-71
2023/10/15 14:16:23;;;;;;;3.72;1.63;;;14.40;83.80;;;;;;6237972;23;20070;-72
2023/10/15 14:19:09;;;;;;;1.65;1.05;;;14.50;83.80;;;;;;6242696;23;20210;-71
2023/10/15 14:21:56;;;;;;;3.03;0.75;;;14.50;83.80;;;;;;6241633;23;20039;-71
2023/10/15 14:24:46;;;;;;;3.28;1.08;;;14.50;84.00;;;;;;6239318;23;20008;-72
2023/10/15 14:27:33;;;;;;;4.35;1.20;;;14.50;83.90;;;;;;6240281;23;20069;-71
2023/10/15 14:30:19;;;;;;;3.25;1.10;;;14.50;83.70;;;;;;6238300;23;20004;-73
2023/10/15 14:33:05;;;;;;;4.30;1.10;;;14.40;83.60;;;;;;6239483;23;20008;-72
2023/10/15 14:35:51;;;;;;;2.85;1.23;;;14.30;83.80;;;;;;6237297;23;20008;-71
2023/10/15 14:38:37;;;;;;;3.47;1.13;;;14.20;83.10;;;;;;6238407;23;20055;-73
2023/10/15 14:41:23;;;;;;;3.53;1.13;;;14.10;82.50;;;;;;6237895;23;20004;-72
2023/10/15 14:44:09;;;;;;;3.92;1.45;;;14.10;82.80;;;;;;6237916;23;20008;-69
2023/10/15 14:46:56;;;;;;;3.45;1.27;;;14.10;83.00;;;;;;6237123;23;20012;-70
2023/10/15 14:49:43;;;;;;;2.58;1.00;;;14.20;83.50;;;;;;6218236;23;20012;-70
2023/10/15 14:52:29;;;;;;;3.47;1.23;;;14.20;83.40;;;;;;6239511;23;20385;-71
2023/10/15 14:55:16;;;;;;;5.75;0.90;;;14.20;82.50;;;;;;6237581;23;20098;-70
2023/10/15 14:58:06;;;;;;;2.65;1.00;;;14.10;82.80;;;;;;6236890;23;20009;-70
2023/10/15 15:00:52;;;;;;;2.78;1.30;;;14.10;82.90;;;;;;6239209;23;20352;-70